sensor_id;sensor_type;location;lat;lon;timestamp;P1;durP1;ratioP1;P2;durP2;ratioP2
73456;SDS011;61691;53.072;6.582;2023-04-07T00:00:23;29.45;;;17.65;;
73456;SDS011;61691;53.072;6.582;2023-04-07T00:02:50;28.25;;;16.90;;
73456;SDS011;61691;53.072;6.582;2023-04-07T00:05:17;28.98;;;17.58;;
73456;SDS011;61691;53.072;6.582;2023-04-07T00:07:44;29.88;;;17.67;;
73456;SDS011;61691;53.072;6.582;2023-04-07T00:10:22;28.35;;;17.33;;
73456;SDS011;61691;53.072;6.582;2023-04-07T00:12:49;29.20;;;17.65;;
73456;SDS011;61691;53.072;6.582;2023-04-07T00:15:16;30.42;;;17.60;;
73456;SDS011;61691;53.072;6.582;2023-04-07T00:17:42;31.30;;;17.35;;
73456;SDS011;61691;53.072;6.582;2023-04-07T00:20:09;27.67;;;17.00;;
73456;SDS011;61691;53.072;6.582;2023-04-07T00:22:36;29.30;;;17.83;;
73456;SDS011;61691;53.072;6.582;2023-04-07T00:25:03;30.10;;;17.90;;
73456;SDS011;61691;53.072;6.582;2023-04-07T00:27:30;32.00;;;18.45;;
73456;SDS011;61691;53.072;6.582;2023-04-07T00:29:57;29.48;;;17.83;;
73456;SDS011;61691;53.072;6.582;2023-04-07T00:32:23;30.73;;;18.63;;
73456;SDS011;61691;53.072;6.582;2023-04-07T00:34:50;31.55;;;19.13;;
73456;SDS011;61691;53.072;6.582;2023-04-07T00:37:17;31.67;;;18.85;;
73456;SDS011;61691;53.072;6.582;2023-04-07T00:39:44;30.00;;;18.13;;
73456;SDS011;61691;53.072;6.582;2023-04-07T00:42:12;31.42;;;18.92;;
73456;SDS011;61691;53.072;6.582;2023-04-07T00:44:38;31.55;;;19.25;;
73456;SDS011;61691;53.072;6.582;2023-04-07T00:47:05;31.13;;;19.45;;
73456;SDS011;61691;53.072;6.582;2023-04-07T00:49:32;32.35;;;19.85;;
73456;SDS011;61691;53.072;6.582;2023-04-07T00:51:59;32.13;;;20.13;;
73456;SDS011;61691;53.072;6.582;2023-04-07T00:54:26;30.88;;;18.95;;
73456;SDS011;61691;53.072;6.582;2023-04-07T00:56:55;30.50;;;18.98;;
73456;SDS011;61691;53.072;6.582;2023-04-07T00:59:23;32.45;;;20.08;;
73456;SDS011;61691;53.072;6.582;2023-04-07T01:02:09;30.80;;;19.00;;
73456;SDS011;61691;53.072;6.582;2023-04-07T01:04:52;31.25;;;18.52;;
73456;SDS011;61691;53.072;6.582;2023-04-07T01:10:16;29.92;;;19.25;;
73456;SDS011;61691;53.072;6.582;2023-04-07T01:12:55;32.45;;;19.83;;
73456;SDS011;61691;53.072;6.582;2023-04-07T01:15:29;30.63;;;18.85;;
73456;SDS011;61691;53.072;6.582;2023-04-07T01:18:15;36.17;;;19.90;;
73456;SDS011;61691;53.072;6.582;2023-04-07T01:20:50;30.33;;;20.27;;
73456;SDS011;61691;53.072;6.582;2023-04-07T01:23:26;31.88;;;19.17;;
73456;SDS011;61691;53.072;6.582;2023-04-07T01:29:03;29.60;;;18.83;;
73456;SDS011;61691;53.072;6.582;2023-04-07T01:31:53;33.30;;;20.13;;
73456;SDS011;61691;53.072;6.582;2023-04-07T01:34:24;32.00;;;19.05;;
73456;SDS011;61691;53.072;6.582;2023-04-07T01:36:54;31.80;;;20.45;;
73456;SDS011;61691;53.072;6.582;2023-04-07T01:39:25;33.08;;;20.08;;
73456;SDS011;61691;53.072;6.582;2023-04-07T01:41:53;31.20;;;19.98;;
73456;SDS011;61691;53.072;6.582;2023-04-07T01:44:21;30.52;;;19.45;;
73456;SDS011;61691;53.072;6.582;2023-04-07T01:46:50;33.80;;;20.40;;
73456;SDS011;61691;53.072;6.582;2023-04-07T01:49:16;32.83;;;20.33;;
73456;SDS011;61691;53.072;6.582;2023-04-07T01:51:44;30.15;;;19.38;;
73456;SDS011;61691;53.072;6.582;2023-04-07T01:54:16;32.78;;;20.50;;
73456;SDS011;61691;53.072;6.582;2023-04-07T01:56:43;32.25;;;20.40;;
73456;SDS011;61691;53.072;6.582;2023-04-07T01:59:10;31.50;;;20.00;;
73456;SDS011;61691;53.072;6.582;2023-04-07T02:01:37;31.23;;;18.90;;
73456;SDS011;61691;53.072;6.582;2023-04-07T02:06:48;35.28;;;20.08;;
73456;SDS011;61691;53.072;6.582;2023-04-07T02:09:19;32.28;;;20.02;;
73456;SDS011;61691;53.072;6.582;2023-04-07T02:11:48;32.08;;;20.42;;
73456;SDS011;61691;53.072;6.582;2023-04-07T02:14:17;33.47;;;20.30;;
73456;SDS011;61691;53.072;6.582;2023-04-07T02:16:46;30.17;;;18.85;;
73456;SDS011;61691;53.072;6.582;2023-04-07T02:19:15;31.95;;;19.98;;
73456;SDS011;61691;53.072;6.582;2023-04-07T02:21:42;32.38;;;20.58;;
73456;SDS011;61691;53.072;6.582;2023-04-07T02:24:11;30.77;;;19.05;;
73456;SDS011;61691;53.072;6.582;2023-04-07T02:26:38;31.00;;;19.30;;
73456;SDS011;61691;53.072;6.582;2023-04-07T02:29:05;32.97;;;19.65;;
73456;SDS011;61691;53.072;6.582;2023-04-07T02:31:32;32.53;;;20.42;;
73456;SDS011;61691;53.072;6.582;2023-04-07T02:33:58;30.30;;;19.08;;
73456;SDS011;61691;53.072;6.582;2023-04-07T02:36:25;31.20;;;18.92;;
73456;SDS011;61691;53.072;6.582;2023-04-07T02:38:52;31.98;;;19.58;;
73456;SDS011;61691;53.072;6.582;2023-04-07T02:41:19;30.88;;;19.00;;
73456;SDS011;61691;53.072;6.582;2023-04-07T02:43:46;30.55;;;18.48;;
73456;SDS011;61691;53.072;6.582;2023-04-07T02:46:13;30.65;;;18.05;;
73456;SDS011;61691;53.072;6.582;2023-04-07T02:48:41;32.58;;;19.58;;
73456;SDS011;61691;53.072;6.582;2023-04-07T02:51:08;30.20;;;18.88;;
73456;SDS011;61691;53.072;6.582;2023-04-07T02:53:35;30.15;;;18.77;;
73456;SDS011;61691;53.072;6.582;2023-04-07T02:56:02;29.90;;;18.48;;
73456;SDS011;61691;53.072;6.582;2023-04-07T02:58:28;29.17;;;18.45;;
73456;SDS011;61691;53.072;6.582;2023-04-07T03:00:55;29.17;;;18.05;;
73456;SDS011;61691;53.072;6.582;2023-04-07T03:03:22;28.98;;;18.40;;
73456;SDS011;61691;53.072;6.582;2023-04-07T03:05:49;31.02;;;19.90;;
73456;SDS011;61691;53.072;6.582;2023-04-07T03:08:15;34.20;;;18.90;;
73456;SDS011;61691;53.072;6.582;2023-04-07T03:10:42;30.38;;;19.00;;
73456;SDS011;61691;53.072;6.582;2023-04-07T03:13:09;36.45;;;19.20;;
73456;SDS011;61691;53.072;6.582;2023-04-07T03:15:37;31.83;;;19.02;;
73456;SDS011;61691;53.072;6.582;2023-04-07T03:18:04;31.17;;;19.70;;
73456;SDS011;61691;53.072;6.582;2023-04-07T03:20:31;31.73;;;20.00;;
73456;SDS011;61691;53.072;6.582;2023-04-07T03:22:58;31.83;;;19.73;;
73456;SDS011;61691;53.072;6.582;2023-04-07T03:25:24;30.75;;;19.60;;
73456;SDS011;61691;53.072;6.582;2023-04-07T03:27:52;32.15;;;20.08;;
73456;SDS011;61691;53.072;6.582;2023-04-07T03:30:19;30.05;;;18.98;;
73456;SDS011;61691;53.072;6.582;2023-04-07T03:32:46;29.92;;;19.65;;
73456;SDS011;61691;53.072;6.582;2023-04-07T03:35:13;31.45;;;19.60;;
73456;SDS011;61691;53.072;6.582;2023-04-07T03:37:39;33.30;;;19.73;;
73456;SDS011;61691;53.072;6.582;2023-04-07T03:40:06;31.52;;;20.23;;
73456;SDS011;61691;53.072;6.582;2023-04-07T03:42:33;32.08;;;19.30;;
73456;SDS011;61691;53.072;6.582;2023-04-07T03:44:59;31.13;;;19.88;;
73456;SDS011;61691;53.072;6.582;2023-04-07T03:47:26;30.15;;;19.70;;
73456;SDS011;61691;53.072;6.582;2023-04-07T03:49:53;31.55;;;19.05;;
73456;SDS011;61691;53.072;6.582;2023-04-07T03:52:20;30.30;;;18.48;;
73456;SDS011;61691;53.072;6.582;2023-04-07T03:54:47;30.02;;;18.73;;
73456;SDS011;61691;53.072;6.582;2023-04-07T03:57:14;31.33;;;18.98;;
73456;SDS011;61691;53.072;6.582;2023-04-07T03:59:40;30.80;;;19.10;;
73456;SDS011;61691;53.072;6.582;2023-04-07T04:02:07;29.50;;;19.00;;
73456;SDS011;61691;53.072;6.582;2023-04-07T04:04:34;30.30;;;19.27;;
73456;SDS011;61691;53.072;6.582;2023-04-07T04:07:01;29.50;;;18.08;;
73456;SDS011;61691;53.072;6.582;2023-04-07T04:09:28;30.85;;;17.73;;
73456;SDS011;61691;53.072;6.582;2023-04-07T04:11:54;31.65;;;19.05;;
73456;SDS011;61691;53.072;6.582;2023-04-07T04:14:22;29.75;;;17.70;;
73456;SDS011;61691;53.072;6.582;2023-04-07T04:16:49;29.77;;;18.23;;
73456;SDS011;61691;53.072;6.582;2023-04-07T04:19:15;29.92;;;18.30;;
73456;SDS011;61691;53.072;6.582;2023-04-07T04:21:42;29.73;;;18.00;;
73456;SDS011;61691;53.072;6.582;2023-04-07T04:24:09;29.40;;;17.15;;
73456;SDS011;61691;53.072;6.582;2023-04-07T04:26:36;29.42;;;17.80;;
73456;SDS011;61691;53.072;6.582;2023-04-07T04:29:02;29.33;;;18.13;;
73456;SDS011;61691;53.072;6.582;2023-04-07T04:31:29;31.85;;;18.83;;
73456;SDS011;61691;53.072;6.582;2023-04-07T04:33:56;30.38;;;17.77;;
73456;SDS011;61691;53.072;6.582;2023-04-07T04:36:22;31.10;;;17.95;;
73456;SDS011;61691;53.072;6.582;2023-04-07T04:38:49;32.08;;;19.48;;
73456;SDS011;61691;53.072;6.582;2023-04-07T04:41:16;31.20;;;19.02;;
73456;SDS011;61691;53.072;6.582;2023-04-07T04:43:42;31.90;;;19.20;;
73456;SDS011;61691;53.072;6.582;2023-04-07T04:46:10;30.95;;;18.48;;
73456;SDS011;61691;53.072;6.582;2023-04-07T04:48:37;29.73;;;18.13;;
73456;SDS011;61691;53.072;6.582;2023-04-07T04:51:03;32.25;;;18.67;;
73456;SDS011;61691;53.072;6.582;2023-04-07T04:53:30;32.72;;;18.80;;
73456;SDS011;61691;53.072;6.582;2023-04-07T04:55:57;30.00;;;18.13;;
73456;SDS011;61691;53.072;6.582;2023-04-07T04:58:24;30.00;;;18.15;;
73456;SDS011;61691;53.072;6.582;2023-04-07T05:00:54;29.90;;;16.88;;
73456;SDS011;61691;53.072;6.582;2023-04-07T05:03:26;31.25;;;18.40;;
73456;SDS011;61691;53.072;6.582;2023-04-07T05:05:54;29.85;;;17.40;;
73456;SDS011;61691;53.072;6.582;2023-04-07T05:08:21;28.25;;;16.83;;
73456;SDS011;61691;53.072;6.582;2023-04-07T05:10:48;28.35;;;16.77;;
73456;SDS011;61691;53.072;6.582;2023-04-07T05:13:15;28.85;;;16.15;;
73456;SDS011;61691;53.072;6.582;2023-04-07T05:15:41;27.33;;;16.80;;
73456;SDS011;61691;53.072;6.582;2023-04-07T05:18:08;29.55;;;15.93;;
73456;SDS011;61691;53.072;6.582;2023-04-07T05:20:35;28.10;;;16.10;;
73456;SDS011;61691;53.072;6.582;2023-04-07T05:23:02;27.88;;;15.85;;
73456;SDS011;61691;53.072;6.582;2023-04-07T05:25:28;27.02;;;15.15;;
73456;SDS011;61691;53.072;6.582;2023-04-07T05:27:56;26.85;;;15.35;;
73456;SDS011;61691;53.072;6.582;2023-04-07T05:30:24;26.33;;;15.13;;
73456;SDS011;61691;53.072;6.582;2023-04-07T05:32:52;26.02;;;15.07;;
73456;SDS011;61691;53.072;6.582;2023-04-07T05:35:19;28.48;;;15.10;;
73456;SDS011;61691;53.072;6.582;2023-04-07T05:37:46;26.35;;;15.20;;
73456;SDS011;61691;53.072;6.582;2023-04-07T05:40:12;26.98;;;14.48;;
73456;SDS011;61691;53.072;6.582;2023-04-07T05:42:39;26.33;;;14.75;;
73456;SDS011;61691;53.072;6.582;2023-04-07T05:45:07;27.27;;;15.95;;
73456;SDS011;61691;53.072;6.582;2023-04-07T05:47:34;24.58;;;14.52;;
73456;SDS011;61691;53.072;6.582;2023-04-07T05:50:01;26.23;;;14.63;;
73456;SDS011;61691;53.072;6.582;2023-04-07T05:52:28;25.98;;;14.48;;
73456;SDS011;61691;53.072;6.582;2023-04-07T05:54:55;26.85;;;15.00;;
73456;SDS011;61691;53.072;6.582;2023-04-07T05:57:22;26.10;;;14.68;;
73456;SDS011;61691;53.072;6.582;2023-04-07T05:59:49;24.55;;;14.20;;
73456;SDS011;61691;53.072;6.582;2023-04-07T06:02:15;25.48;;;14.93;;
73456;SDS011;61691;53.072;6.582;2023-04-07T06:04:42;25.35;;;13.95;;
73456;SDS011;61691;53.072;6.582;2023-04-07T06:07:09;26.05;;;14.52;;
73456;SDS011;61691;53.072;6.582;2023-04-07T06:09:36;26.98;;;14.57;;
73456;SDS011;61691;53.072;6.582;2023-04-07T06:12:02;26.75;;;14.55;;
73456;SDS011;61691;53.072;6.582;2023-04-07T06:14:32;24.92;;;13.63;;
73456;SDS011;61691;53.072;6.582;2023-04-07T06:16:58;25.08;;;14.55;;
73456;SDS011;61691;53.072;6.582;2023-04-07T06:19:25;25.58;;;14.27;;
73456;SDS011;61691;53.072;6.582;2023-04-07T06:21:55;110.00;;;22.85;;
73456;SDS011;61691;53.072;6.582;2023-04-07T06:24:21;27.05;;;15.23;;
73456;SDS011;61691;53.072;6.582;2023-04-07T06:26:53;26.02;;;15.20;;
73456;SDS011;61691;53.072;6.582;2023-04-07T06:29:20;26.23;;;15.23;;
73456;SDS011;61691;53.072;6.582;2023-04-07T06:31:47;25.88;;;14.40;;
73456;SDS011;61691;53.072;6.582;2023-04-07T06:34:13;27.67;;;16.80;;
73456;SDS011;61691;53.072;6.582;2023-04-07T06:36:40;25.13;;;14.60;;
73456;SDS011;61691;53.072;6.582;2023-04-07T06:39:07;24.55;;;13.95;;
73456;SDS011;61691;53.072;6.582;2023-04-07T06:41:33;26.83;;;14.70;;
73456;SDS011;61691;53.072;6.582;2023-04-07T06:44:00;25.73;;;14.90;;
73456;SDS011;61691;53.072;6.582;2023-04-07T06:46:27;25.35;;;14.05;;
73456;SDS011;61691;53.072;6.582;2023-04-07T06:48:54;24.60;;;13.90;;
73456;SDS011;61691;53.072;6.582;2023-04-07T06:51:21;25.83;;;14.25;;
73456;SDS011;61691;53.072;6.582;2023-04-07T06:53:47;24.35;;;13.55;;
73456;SDS011;61691;53.072;6.582;2023-04-07T06:56:15;25.13;;;14.32;;
73456;SDS011;61691;53.072;6.582;2023-04-07T06:58:41;24.65;;;13.77;;
73456;SDS011;61691;53.072;6.582;2023-04-07T07:01:08;24.77;;;14.00;;
73456;SDS011;61691;53.072;6.582;2023-04-07T07:03:35;24.88;;;13.80;;
73456;SDS011;61691;53.072;6.582;2023-04-07T07:06:02;24.92;;;14.25;;
73456;SDS011;61691;53.072;6.582;2023-04-07T07:08:29;24.73;;;13.77;;
73456;SDS011;61691;53.072;6.582;2023-04-07T07:10:56;24.58;;;13.55;;
73456;SDS011;61691;53.072;6.582;2023-04-07T07:13:24;23.67;;;13.68;;
73456;SDS011;61691;53.072;6.582;2023-04-07T07:15:52;24.67;;;13.98;;
73456;SDS011;61691;53.072;6.582;2023-04-07T07:18:19;24.50;;;13.70;;
73456;SDS011;61691;53.072;6.582;2023-04-07T07:20:46;24.65;;;13.13;;
73456;SDS011;61691;53.072;6.582;2023-04-07T07:23:13;22.40;;;12.60;;
73456;SDS011;61691;53.072;6.582;2023-04-07T07:25:39;23.30;;;12.52;;
73456;SDS011;61691;53.072;6.582;2023-04-07T07:28:06;24.02;;;13.48;;
73456;SDS011;61691;53.072;6.582;2023-04-07T07:30:34;23.42;;;12.95;;
73456;SDS011;61691;53.072;6.582;2023-04-07T07:33:01;22.92;;;12.45;;
73456;SDS011;61691;53.072;6.582;2023-04-07T07:35:28;23.33;;;12.57;;
73456;SDS011;61691;53.072;6.582;2023-04-07T07:37:55;22.40;;;12.20;;
73456;SDS011;61691;53.072;6.582;2023-04-07T07:40:22;24.27;;;13.00;;
73456;SDS011;61691;53.072;6.582;2023-04-07T07:42:48;24.00;;;12.55;;
73456;SDS011;61691;53.072;6.582;2023-04-07T07:45:15;23.13;;;12.95;;
73456;SDS011;61691;53.072;6.582;2023-04-07T07:47:45;21.92;;;12.20;;
73456;SDS011;61691;53.072;6.582;2023-04-07T07:50:11;23.73;;;12.90;;
73456;SDS011;61691;53.072;6.582;2023-04-07T07:52:38;22.73;;;12.20;;
73456;SDS011;61691;53.072;6.582;2023-04-07T07:55:05;23.38;;;12.25;;
73456;SDS011;61691;53.072;6.582;2023-04-07T07:57:32;22.60;;;11.15;;
73456;SDS011;61691;53.072;6.582;2023-04-07T07:59:59;22.92;;;12.15;;
73456;SDS011;61691;53.072;6.582;2023-04-07T08:02:25;23.38;;;11.10;;
73456;SDS011;61691;53.072;6.582;2023-04-07T08:04:56;22.20;;;11.40;;
73456;SDS011;61691;53.072;6.582;2023-04-07T08:07:23;21.73;;;11.00;;
73456;SDS011;61691;53.072;6.582;2023-04-07T08:09:50;21.35;;;10.93;;
73456;SDS011;61691;53.072;6.582;2023-04-07T08:12:17;20.92;;;10.65;;
73456;SDS011;61691;53.072;6.582;2023-04-07T08:14:44;21.60;;;10.70;;
73456;SDS011;61691;53.072;6.582;2023-04-07T08:17:11;22.13;;;10.55;;
73456;SDS011;61691;53.072;6.582;2023-04-07T08:19:38;20.92;;;10.20;;
73456;SDS011;61691;53.072;6.582;2023-04-07T08:22:05;22.05;;;11.00;;
73456;SDS011;61691;53.072;6.582;2023-04-07T08:24:31;20.33;;;10.30;;
73456;SDS011;61691;53.072;6.582;2023-04-07T08:26:58;20.58;;;10.02;;
73456;SDS011;61691;53.072;6.582;2023-04-07T08:29:25;20.48;;;9.98;;
73456;SDS011;61691;53.072;6.582;2023-04-07T08:31:51;20.77;;;10.25;;
73456;SDS011;61691;53.072;6.582;2023-04-07T08:34:18;21.40;;;9.57;;
73456;SDS011;61691;53.072;6.582;2023-04-07T08:36:46;20.00;;;9.77;;
73456;SDS011;61691;53.072;6.582;2023-04-07T08:39:13;19.30;;;8.75;;
73456;SDS011;61691;53.072;6.582;2023-04-07T08:41:40;19.48;;;9.48;;
73456;SDS011;61691;53.072;6.582;2023-04-07T08:44:07;19.45;;;9.18;;
73456;SDS011;61691;53.072;6.582;2023-04-07T08:46:38;20.25;;;9.10;;
73456;SDS011;61691;53.072;6.582;2023-04-07T08:49:10;19.23;;;9.10;;
73456;SDS011;61691;53.072;6.582;2023-04-07T08:51:44;19.00;;;8.80;;
73456;SDS011;61691;53.072;6.582;2023-04-07T08:54:13;17.88;;;8.23;;
73456;SDS011;61691;53.072;6.582;2023-04-07T08:56:41;19.67;;;9.48;;
73456;SDS011;61691;53.072;6.582;2023-04-07T08:59:10;20.17;;;9.55;;
73456;SDS011;61691;53.072;6.582;2023-04-07T09:01:38;21.50;;;9.30;;
73456;SDS011;61691;53.072;6.582;2023-04-07T09:04:06;19.60;;;8.98;;
73456;SDS011;61691;53.072;6.582;2023-04-07T09:06:34;19.92;;;9.55;;
73456;SDS011;61691;53.072;6.582;2023-04-07T09:09:02;21.90;;;9.45;;
73456;SDS011;61691;53.072;6.582;2023-04-07T09:11:34;20.63;;;9.00;;
73456;SDS011;61691;53.072;6.582;2023-04-07T09:14:03;21.90;;;10.00;;
73456;SDS011;61691;53.072;6.582;2023-04-07T09:16:30;19.95;;;9.80;;
73456;SDS011;61691;53.072;6.582;2023-04-07T09:18:57;20.42;;;9.50;;
73456;SDS011;61691;53.072;6.582;2023-04-07T09:21:24;20.10;;;9.93;;
73456;SDS011;61691;53.072;6.582;2023-04-07T09:23:52;21.15;;;10.90;;
73456;SDS011;61691;53.072;6.582;2023-04-07T09:26:20;23.23;;;10.82;;
73456;SDS011;61691;53.072;6.582;2023-04-07T09:28:52;20.70;;;10.07;;
73456;SDS011;61691;53.072;6.582;2023-04-07T09:31:45;20.65;;;10.00;;
73456;SDS011;61691;53.072;6.582;2023-04-07T09:34:28;20.52;;;10.10;;
73456;SDS011;61691;53.072;6.582;2023-04-07T09:36:57;22.00;;;10.60;;
73456;SDS011;61691;53.072;6.582;2023-04-07T09:39:24;19.52;;;9.98;;
73456;SDS011;61691;53.072;6.582;2023-04-07T09:41:51;21.42;;;9.65;;
73456;SDS011;61691;53.072;6.582;2023-04-07T09:44:19;22.20;;;9.38;;
73456;SDS011;61691;53.072;6.582;2023-04-07T09:49:16;18.60;;;8.75;;
73456;SDS011;61691;53.072;6.582;2023-04-07T09:51:55;19.42;;;8.57;;
73456;SDS011;61691;53.072;6.582;2023-04-07T09:54:30;18.58;;;8.95;;
73456;SDS011;61691;53.072;6.582;2023-04-07T09:56:59;18.35;;;8.60;;
73456;SDS011;61691;53.072;6.582;2023-04-07T09:59:28;20.05;;;9.02;;
73456;SDS011;61691;53.072;6.582;2023-04-07T10:01:56;20.05;;;10.10;;
73456;SDS011;61691;53.072;6.582;2023-04-07T10:04:23;19.45;;;9.75;;
73456;SDS011;61691;53.072;6.582;2023-04-07T10:06:51;19.77;;;10.00;;
73456;SDS011;61691;53.072;6.582;2023-04-07T10:09:23;20.90;;;9.95;;
73456;SDS011;61691;53.072;6.582;2023-04-07T10:11:52;21.20;;;10.20;;
73456;SDS011;61691;53.072;6.582;2023-04-07T10:14:21;20.30;;;9.73;;
73456;SDS011;61691;53.072;6.582;2023-04-07T10:16:49;20.85;;;9.88;;
73456;SDS011;61691;53.072;6.582;2023-04-07T10:19:18;20.42;;;10.05;;
73456;SDS011;61691;53.072;6.582;2023-04-07T10:21:45;21.05;;;9.65;;
73456;SDS011;61691;53.072;6.582;2023-04-07T10:27:06;20.30;;;8.75;;
73456;SDS011;61691;53.072;6.582;2023-04-07T10:29:38;18.98;;;8.60;;
73456;SDS011;61691;53.072;6.582;2023-04-07T10:32:08;19.13;;;8.50;;
73456;SDS011;61691;53.072;6.582;2023-04-07T10:37:19;18.42;;;8.10;;
73456;SDS011;61691;53.072;6.582;2023-04-07T10:39:48;18.48;;;8.43;;
73456;SDS011;61691;53.072;6.582;2023-04-07T10:45:08;17.73;;;7.95;;
73456;SDS011;61691;53.072;6.582;2023-04-07T10:50:24;17.73;;;7.50;;
73456;SDS011;61691;53.072;6.582;2023-04-07T10:55:42;18.35;;;7.25;;
73456;SDS011;61691;53.072;6.582;2023-04-07T11:00:42;18.73;;;8.23;;
73456;SDS011;61691;53.072;6.582;2023-04-07T11:03:30;18.67;;;7.68;;
73456;SDS011;61691;53.072;6.582;2023-04-07T11:08:43;18.85;;;8.27;;
73456;SDS011;61691;53.072;6.582;2023-04-07T11:11:15;18.02;;;7.97;;
73456;SDS011;61691;53.072;6.582;2023-04-07T11:13:59;18.48;;;8.10;;
73456;SDS011;61691;53.072;6.582;2023-04-07T11:16:34;20.58;;;8.73;;
73456;SDS011;61691;53.072;6.582;2023-04-07T11:19:02;20.75;;;8.85;;
73456;SDS011;61691;53.072;6.582;2023-04-07T11:21:28;18.77;;;8.25;;
73456;SDS011;61691;53.072;6.582;2023-04-07T11:23:55;20.58;;;8.52;;
73456;SDS011;61691;53.072;6.582;2023-04-07T11:26:22;19.27;;;9.27;;
73456;SDS011;61691;53.072;6.582;2023-04-07T11:28:53;18.23;;;8.20;;
73456;SDS011;61691;53.072;6.582;2023-04-07T11:31:21;19.15;;;8.73;;
73456;SDS011;61691;53.072;6.582;2023-04-07T11:33:52;20.58;;;9.05;;
73456;SDS011;61691;53.072;6.582;2023-04-07T11:38:57;18.98;;;9.20;;
73456;SDS011;61691;53.072;6.582;2023-04-07T11:41:26;18.45;;;8.50;;
73456;SDS011;61691;53.072;6.582;2023-04-07T11:44:03;19.50;;;8.07;;
73456;SDS011;61691;53.072;6.582;2023-04-07T11:46:34;18.50;;;7.72;;
73456;SDS011;61691;53.072;6.582;2023-04-07T11:49:35;19.45;;;7.70;;
73456;SDS011;61691;53.072;6.582;2023-04-07T11:54:44;18.55;;;8.38;;
73456;SDS011;61691;53.072;6.582;2023-04-07T11:57:25;17.75;;;7.30;;
73456;SDS011;61691;53.072;6.582;2023-04-07T12:00:08;18.23;;;8.25;;
73456;SDS011;61691;53.072;6.582;2023-04-07T12:02:37;17.98;;;7.50;;
73456;SDS011;61691;53.072;6.582;2023-04-07T12:05:04;18.50;;;7.78;;
73456;SDS011;61691;53.072;6.582;2023-04-07T12:07:32;17.45;;;7.20;;
73456;SDS011;61691;53.072;6.582;2023-04-07T12:10:16;17.50;;;7.50;;
73456;SDS011;61691;53.072;6.582;2023-04-07T12:12:46;19.58;;;6.97;;
73456;SDS011;61691;53.072;6.582;2023-04-07T12:15:14;18.45;;;7.15;;
73456;SDS011;61691;53.072;6.582;2023-04-07T12:17:45;17.35;;;6.95;;
73456;SDS011;61691;53.072;6.582;2023-04-07T12:20:13;19.00;;;6.80;;
73456;SDS011;61691;53.072;6.582;2023-04-07T12:22:41;17.40;;;6.65;;
73456;SDS011;61691;53.072;6.582;2023-04-07T12:25:08;17.55;;;6.50;;
73456;SDS011;61691;53.072;6.582;2023-04-07T12:27:35;16.27;;;5.60;;
73456;SDS011;61691;53.072;6.582;2023-04-07T12:30:09;17.60;;;6.18;;
73456;SDS011;61691;53.072;6.582;2023-04-07T12:32:38;16.10;;;5.78;;
73456;SDS011;61691;53.072;6.582;2023-04-07T12:35:05;15.75;;;5.47;;
73456;SDS011;61691;53.072;6.582;2023-04-07T12:37:32;17.95;;;6.40;;
73456;SDS011;61691;53.072;6.582;2023-04-07T12:39:58;16.55;;;5.50;;
73456;SDS011;61691;53.072;6.582;2023-04-07T12:42:26;16.08;;;5.30;;
73456;SDS011;61691;53.072;6.582;2023-04-07T12:44:53;16.30;;;5.50;;
73456;SDS011;61691;53.072;6.582;2023-04-07T12:47:19;17.88;;;5.65;;
73456;SDS011;61691;53.072;6.582;2023-04-07T12:49:47;16.83;;;5.35;;
73456;SDS011;61691;53.072;6.582;2023-04-07T12:52:15;16.95;;;6.25;;
73456;SDS011;61691;53.072;6.582;2023-04-07T12:54:42;16.95;;;5.95;;
73456;SDS011;61691;53.072;6.582;2023-04-07T12:57:10;15.90;;;5.57;;
73456;SDS011;61691;53.072;6.582;2023-04-07T12:59:37;14.75;;;4.70;;
73456;SDS011;61691;53.072;6.582;2023-04-07T13:02:04;15.88;;;5.63;;
73456;SDS011;61691;53.072;6.582;2023-04-07T13:04:31;16.05;;;5.57;;
73456;SDS011;61691;53.072;6.582;2023-04-07T13:06:58;18.88;;;5.13;;
73456;SDS011;61691;53.072;6.582;2023-04-07T13:09:28;17.20;;;5.30;;
73456;SDS011;61691;53.072;6.582;2023-04-07T13:11:54;13.98;;;4.57;;
73456;SDS011;61691;53.072;6.582;2023-04-07T13:14:22;14.68;;;4.28;;
73456;SDS011;61691;53.072;6.582;2023-04-07T13:16:49;20.58;;;4.68;;
73456;SDS011;61691;53.072;6.582;2023-04-07T13:19:17;14.50;;;4.60;;
73456;SDS011;61691;53.072;6.582;2023-04-07T13:21:43;13.80;;;4.45;;
73456;SDS011;61691;53.072;6.582;2023-04-07T13:24:14;14.10;;;4.13;;
73456;SDS011;61691;53.072;6.582;2023-04-07T13:26:41;13.43;;;4.00;;
73456;SDS011;61691;53.072;6.582;2023-04-07T13:29:08;15.55;;;4.75;;
73456;SDS011;61691;53.072;6.582;2023-04-07T13:31:35;14.40;;;4.45;;
73456;SDS011;61691;53.072;6.582;2023-04-07T13:34:02;14.35;;;4.40;;
73456;SDS011;61691;53.072;6.582;2023-04-07T13:36:29;14.65;;;4.45;;
73456;SDS011;61691;53.072;6.582;2023-04-07T13:38:56;15.07;;;4.55;;
73456;SDS011;61691;53.072;6.582;2023-04-07T13:41:23;15.85;;;5.07;;
73456;SDS011;61691;53.072;6.582;2023-04-07T13:43:50;15.02;;;4.45;;
73456;SDS011;61691;53.072;6.582;2023-04-07T13:46:17;15.02;;;4.45;;
73456;SDS011;61691;53.072;6.582;2023-04-07T13:48:47;16.17;;;4.85;;
73456;SDS011;61691;53.072;6.582;2023-04-07T13:51:14;16.40;;;4.70;;
73456;SDS011;61691;53.072;6.582;2023-04-07T13:53:41;14.20;;;4.45;;
73456;SDS011;61691;53.072;6.582;2023-04-07T13:56:08;15.07;;;4.78;;
73456;SDS011;61691;53.072;6.582;2023-04-07T13:58:35;15.48;;;4.68;;
73456;SDS011;61691;53.072;6.582;2023-04-07T14:01:02;16.73;;;5.20;;
73456;SDS011;61691;53.072;6.582;2023-04-07T14:03:29;15.93;;;5.40;;
73456;SDS011;61691;53.072;6.582;2023-04-07T14:05:57;17.95;;;6.00;;
73456;SDS011;61691;53.072;6.582;2023-04-07T14:08:26;15.20;;;5.25;;
73456;SDS011;61691;53.072;6.582;2023-04-07T14:10:53;16.52;;;5.43;;
73456;SDS011;61691;53.072;6.582;2023-04-07T14:13:20;17.90;;;5.03;;
73456;SDS011;61691;53.072;6.582;2023-04-07T14:15:57;16.70;;;5.45;;
73456;SDS011;61691;53.072;6.582;2023-04-07T14:18:26;18.73;;;5.25;;
73456;SDS011;61691;53.072;6.582;2023-04-07T14:20:54;16.15;;;5.40;;
73456;SDS011;61691;53.072;6.582;2023-04-07T14:23:22;16.02;;;5.95;;
73456;SDS011;61691;53.072;6.582;2023-04-07T14:26:03;15.93;;;5.57;;
73456;SDS011;61691;53.072;6.582;2023-04-07T14:28:31;16.30;;;5.80;;
73456;SDS011;61691;53.072;6.582;2023-04-07T14:30:58;15.65;;;5.22;;
73456;SDS011;61691;53.072;6.582;2023-04-07T14:33:25;16.02;;;5.90;;
73456;SDS011;61691;53.072;6.582;2023-04-07T14:35:52;16.75;;;5.85;;
73456;SDS011;61691;53.072;6.582;2023-04-07T14:38:18;15.35;;;5.57;;
73456;SDS011;61691;53.072;6.582;2023-04-07T14:40:49;17.98;;;5.65;;
73456;SDS011;61691;53.072;6.582;2023-04-07T14:43:16;16.13;;;5.82;;
73456;SDS011;61691;53.072;6.582;2023-04-07T14:45:43;15.65;;;5.60;;
73456;SDS011;61691;53.072;6.582;2023-04-07T14:48:10;15.23;;;5.63;;
73456;SDS011;61691;53.072;6.582;2023-04-07T14:50:37;16.48;;;6.10;;
73456;SDS011;61691;53.072;6.582;2023-04-07T14:53:04;17.85;;;6.57;;
73456;SDS011;61691;53.072;6.582;2023-04-07T14:55:32;17.38;;;6.40;;
73456;SDS011;61691;53.072;6.582;2023-04-07T14:57:59;17.45;;;6.05;;
73456;SDS011;61691;53.072;6.582;2023-04-07T15:00:26;32.33;;;7.93;;
73456;SDS011;61691;53.072;6.582;2023-04-07T15:02:54;30.80;;;7.50;;
73456;SDS011;61691;53.072;6.582;2023-04-07T15:05:21;16.42;;;6.20;;
73456;SDS011;61691;53.072;6.582;2023-04-07T15:07:48;16.27;;;6.00;;